GCXO

Tenerife Norte Airport

Tenerife Island, Spain
METAR GCXO 161930Z 31019KT 9999 FEW003 BKN006 18/17 Q1022 NOSIG
Observed Flight Rules
Aug-16 @ 19:30 UTC (40 minutes ago) Instrument Flight Rules
Wind Visibility Clouds
310° at 19 knots 10,000+ meters
  • Few at 300' AGL
  • Broken at 600' AGL
Temperatures Readings
Current 18°C / 64°F
Dewpoint 17°C / 63°F
Humidity 94%
Altimeter 30.18" Hg
Pressure 1022 hPa
Elevation 632
METAR GCXO 161930Z 31019KT 9999 FEW003 BKN006 18/17 Q1022 NOSIG
Observed Flight Rules
Aug-16 @ 19:30 UTC
(40 minutes ago)
IFR
Wind Visibility
310° at 19 knots 10,000+ meters
Clouds
  • Few at 300' AGL
  • Broken at 600' AGL
Temperature Dewpoint
18°C / 64°F 17°C / 63°F
Humidity Altimeter Pressure
94% 30.18" Hg 1022 hPa